Pagina principale
METAR-TAF:

METAR-TAF

Aeroporti :

Le Havre, Francia

latitudine: 49-31N, longitudine: 000-04E, altezza: 100 m

Osservazione

Il bollettino è stato emesso 21 minuti fa, alle 08:00 UTC
Vento 7 kt da nord/nord-ovest, variando fra ovest/nord-ovest e nord
Temperature 13°C
Umidità 82%
Pressione 1009 hPa
Visibilità 10 km o più
Nuvoloso ad un'altezza di 1600 ft
Nuvoloso ad un'altezza di 2700 ft

METAR: LFOH 070800Z AUTO 33007KT 290V350 9999 BKN016 BKN027 13/10 Q1009

Ora: 10:21 (08:21 UTC)


TAF: mancante

Osservazioni e previsioni meteorologiche di più di 4000 aeroporti (messaggi METAR e TAF).

Le stazioni disponibili sono rappresentate dai dischi gialli e rossi sulla carta.

Puntare il mouse per vedere il nome della stazione.

Clicca sopra per visualizzare le osservazioni e previsioni meteorologiche.

Per cambiare la mappa : fare clic sui pulsanti verdi con una croce nera per ingrandire, il pulsante verde con un trattino per diminuire, o sulla freccia verde per le mappe adiacenti.


METAR-TAF: